TimeCDT,TemperatureF,Dew PointF,Humidity,Sea Level PressureIn,VisibilityMPH,Wind Direction,Wind SpeedMPH,Gust SpeedMPH,PrecipitationIn,Events,Conditions,WindDirDegrees,DateUTC
12:54 AM,77.0,57.0,50,29.83,10.0,SSE,9.2,-,N/A,,Clear,150,2013-08-31 05:54:00
1:54 AM,75.0,57.9,55,29.83,10.0,SE,8.1,-,N/A,,Clear,140,2013-08-31 06:54:00
2:54 AM,75.0,57.9,55,29.81,10.0,SSE,8.1,-,N/A,,Clear,160,2013-08-31 07:54:00
3:54 AM,73.0,57.9,59,29.82,10.0,South,6.9,-,N/A,,Clear,180,2013-08-31 08:54:00
4:34 AM,77.0,57.2,50,29.98,10.0,North,13.8,-,N/A,,Clear,10,2013-08-31 09:34:00
4:54 AM,75.0,63.0,66,29.85,10.0,NE,13.8,-,N/A,,Clear,40,2013-08-31 09:54:00
5:54 AM,73.9,60.1,62,29.85,10.0,ENE,18.4,-,N/A,,Clear,60,2013-08-31 10:54:00
6:54 AM,71.1,60.1,68,29.84,10.0,ENE,12.7,-,N/A,,Clear,70,2013-08-31 11:54:00
7:54 AM,72.0,57.9,61,29.84,10.0,East,10.4,-,N/A,,Clear,100,2013-08-31 12:54:00
8:54 AM,73.9,59.0,59,29.86,10.0,SE,9.2,-,N/A,,Clear,140,2013-08-31 13:54:00
9:54 AM,77.0,60.1,56,29.86,10.0,SE,11.5,-,N/A,,Clear,140,2013-08-31 14:54:00
10:54 AM,81.0,62.1,52,29.86,10.0,SE,9.2,-,N/A,,Clear,140,2013-08-31 15:54:00
11:54 AM,86.0,63.0,46,29.84,10.0,SE,9.2,-,N/A,,Clear,140,2013-08-31 16:54:00
12:54 PM,89.1,66.0,46,29.83,10.0,SSE,9.2,-,N/A,,Clear,160,2013-08-31 17:54:00
1:54 PM,93.0,64.9,39,29.81,10.0,ESE,8.1,-,N/A,,Clear,120,2013-08-31 18:54:00
2:54 PM,95.0,63.0,34,29.80,10.0,SSW,5.8,-,N/A,,Clear,200,2013-08-31 19:54:00
3:54 PM,97.0,61.0,30,29.78,10.0,Variable,4.6,-,N/A,,Clear,0,2013-08-31 20:54:00
4:54 PM,99.0,60.1,28,29.75,10.0,East,6.9,-,N/A,,Clear,90,2013-08-31 21:54:00
5:54 PM,99.0,57.9,25,29.74,10.0,East,5.8,-,N/A,,Clear,80,2013-08-31 22:54:00
6:54 PM,97.0,57.0,26,29.74,10.0,ESE,6.9,-,N/A,,Clear,110,2013-08-31 23:54:00
7:54 PM,91.0,60.1,35,29.75,10.0,East,5.8,-,N/A,,Clear,100,2013-09-01 00:54:00
8:54 PM,87.1,59.0,39,29.76,10.0,East,6.9,-,N/A,,Clear,100,2013-09-01 01:54:00
9:54 PM,84.0,61.0,46,29.76,10.0,East,8.1,-,N/A,,Clear,90,2013-09-01 02:54:00
10:54 PM,84.9,61.0,44,29.77,10.0,ESE,10.4,-,N/A,,Clear,120,2013-09-01 03:54:00
11:45 PM,78.8,62.6,57,29.96,5.0,WNW,32.2,43.7,N/A,,Haze,300,2013-09-01 04:45:00
11:54 PM,72.0,64.9,78,29.86,5.0,WNW,31.1,44.9,0.00,Rain,Light Rain,300,2013-09-01 04:54:00
11:56 PM,71.6,64.4,78,29.97,6.0,WNW,27.6,44.9,0.00,Rain-Thunderstorm,Light Rain,300,2013-09-01 04:56:00